الصفحة الرئيسية
METAR-TAF:

METAR-TAF

مطار :

Maré, نيو كاليدونيا

دائرة عرض: 21-28-53S, خط طول: 168-02-15E, ارتفاع: 42 متر

METAR: مفقودة

زمن: 20:42 (09:42 UTC)

توقعات

تاريخ ووقت الإصدار 16ساعات و 42 دقيقة قبل الساعة 17:00UTC
التوقعات صالحة من25 الساعة 18 UTC إلى 26 الساعة 18 UTC
ريح 8 عقدة من الجنوب/الجنوب الشرقي
الرؤية 10 كم أو أكثر
غيوم متفرقة على ارتفاع 2500 قدم
غيوم مفككة على ارتفاع 11000 قدم
نظرية الاحتمالات 40% :
مؤقت
من 25 الساعة 18 UTC إلى 25 الساعة 21 UTC
مطر

TAF: NWWR 251700Z 2518/2618 15008KT 9999 SCT025 BKN110 PROB40 TEMPO 2518/2521 RA

أرصاد الطقس والتوقعات من أكثر من 4000 مطار (تقارير الطقس للمطار METAR والتنبؤ بالطقس بالمطارTAF).

المحطات المتاحة هي النقط الصفراء والحمراء على الخريطة.

حرك المؤشر فوق النقطة لمعرفة اسم المحطة.

ثم انقر لمعرفة أرصاد وتوقعات الطقس.

لتغيير الخارطة: اضغط على الأزرار الخضراء مع رمز الصليب الأسود للتكبير. على الزر الأخضر مع شرطة للتصغير، أو على الأسهم الخضراء للخرائط المجاورة.


METAR-TAF: